createdAt,value
2022-08-27T00:01:39.511Z,14.02
2022-08-27T00:04:06.449Z,15.07
2022-08-27T00:06:33.338Z,15.35
2022-08-27T00:09:00.141Z,15.48
2022-08-27T00:11:26.963Z,13.98
2022-08-27T00:13:54.329Z,17.13
2022-08-27T00:16:21.435Z,15.07
2022-08-27T00:18:48.913Z,17.80
2022-08-27T00:21:17.314Z,15.30
2022-08-27T00:23:44.470Z,19.02
2022-08-27T00:26:12.985Z,18.20
2022-08-27T00:28:41.317Z,15.43
2022-08-27T00:31:09.485Z,21.30
2022-08-27T00:33:40.152Z,19.48
2022-08-27T00:36:07.873Z,18.85
2022-08-27T00:38:36.246Z,22.17
2022-08-27T00:41:03.305Z,20.67
2022-08-27T00:43:45.250Z,17.85
2022-08-27T00:46:23.691Z,21.58
2022-08-27T00:48:55.947Z,19.50
2022-08-27T00:51:25.640Z,18.58
2022-08-27T00:53:54.839Z,18.58
2022-08-27T00:56:27.237Z,17.98
2022-08-27T00:58:56.926Z,23.00
2022-08-27T01:01:30.577Z,19.00
2022-08-27T01:04:05.930Z,19.98
2022-08-27T01:06:37.548Z,16.63
2022-08-27T01:09:16.680Z,21.42
2022-08-27T01:11:47.822Z,22.13
2022-08-27T01:14:15.254Z,25.85
2022-08-27T01:16:51.549Z,22.00
2022-08-27T01:19:35.554Z,20.85
2022-08-27T01:22:43.510Z,21.88
2022-08-27T01:25:15.547Z,23.58
2022-08-27T01:27:45.078Z,26.48
2022-08-27T01:30:15.847Z,27.23
2022-08-27T01:32:44.429Z,30.88
2022-08-27T01:35:14.241Z,26.05
2022-08-27T01:37:44.819Z,28.90
2022-08-27T01:40:13.676Z,35.50
2022-08-27T01:42:49.678Z,30.60
2022-08-27T01:45:26.041Z,31.83
2022-08-27T01:47:53.599Z,28.88
2022-08-27T01:50:26.715Z,32.55
2022-08-27T01:52:55.102Z,34.90
2022-08-27T01:55:26.527Z,31.02
2022-08-27T01:57:55.521Z,38.00
2022-08-27T02:00:34.843Z,39.92
2022-08-27T02:03:02.322Z,34.90
2022-08-27T02:05:30.482Z,36.17
2022-08-27T02:07:58.823Z,34.95
2022-08-27T02:10:33.314Z,34.97
2022-08-27T02:13:00.554Z,37.72
2022-08-27T02:15:28.743Z,36.45
2022-08-27T02:17:56.338Z,35.17
2022-08-27T02:20:23.884Z,36.35
2022-08-27T02:22:56.057Z,37.30
2022-08-27T02:25:23.203Z,35.83
2022-08-27T02:27:50.710Z,31.92
2022-08-27T02:30:22.587Z,35.10
2022-08-27T02:32:50.039Z,32.33
2022-08-27T02:35:18.960Z,28.65
2022-08-27T02:37:46.711Z,31.60
2022-08-27T02:40:17.168Z,30.98
2022-08-27T02:42:45.558Z,33.42
2022-08-27T02:45:14.431Z,26.77
2022-08-27T02:47:41.904Z,25.52
2022-08-27T02:50:10.241Z,28.00
2022-08-27T02:52:37.815Z,25.02
2022-08-27T02:55:05.771Z,27.48
2022-08-27T02:57:36.453Z,27.45
2022-08-27T03:00:08.674Z,22.48
2022-08-27T03:02:36.805Z,23.88
2022-08-27T03:05:05.075Z,21.38
2022-08-27T03:07:31.883Z,19.50
2022-08-27T03:09:58.853Z,21.08
2022-08-27T03:12:25.785Z,20.95
2022-08-27T03:14:52.726Z,22.02
2022-08-27T03:17:38.235Z,20.05
2022-08-27T03:20:07.242Z,15.45
2022-08-27T03:22:34.592Z,16.60
2022-08-27T03:25:04.338Z,17.33
2022-08-27T03:27:31.166Z,13.88
2022-08-27T03:30:03.092Z,13.18
2022-08-27T03:32:30.938Z,12.48
2022-08-27T03:34:59.142Z,13.95
2022-08-27T03:37:26.678Z,13.43
2022-08-27T03:39:53.724Z,12.63
2022-08-27T03:42:21.533Z,12.48
2022-08-27T03:44:48.826Z,11.15
2022-08-27T03:47:15.750Z,11.18
2022-08-27T03:49:42.639Z,12.45
2022-08-27T03:52:10.633Z,12.10
2022-08-27T03:54:38.566Z,10.55
2022-08-27T03:57:06.712Z,10.82
2022-08-27T03:59:33.650Z,9.15
2022-08-27T04:02:01.694Z,10.32
2022-08-27T04:04:28.824Z,11.52
2022-08-27T04:06:56.116Z,9.52
2022-08-27T04:09:26.342Z,10.13
2022-08-27T04:11:53.589Z,9.27
2022-08-27T04:14:26.515Z,11.25
2022-08-27T04:16:56.095Z,8.18
2022-08-27T04:19:27.649Z,10.05
2022-08-27T04:22:00.799Z,8.48
2022-08-27T04:24:29.047Z,10.63
2022-08-27T04:26:55.896Z,11.13
2022-08-27T04:29:22.846Z,9.88
2022-08-27T04:31:49.986Z,11.45
2022-08-27T04:34:18.296Z,8.98
2022-08-27T04:36:46.259Z,9.98
2022-08-27T04:39:14.984Z,9.50
2022-08-27T04:41:42.459Z,9.93
2022-08-27T04:44:11.507Z,7.82
2022-08-27T04:46:40.835Z,10.55
2022-08-27T04:49:15.479Z,9.27
2022-08-27T04:51:43.369Z,9.45
2022-08-27T04:54:11.241Z,7.43
2022-08-27T04:56:39.472Z,9.43
2022-08-27T04:59:09.930Z,8.35
2022-08-27T05:01:40.166Z,9.35
2022-08-27T05:04:11.151Z,8.65
2022-08-27T05:06:37.976Z,9.07
2022-08-27T05:09:06.153Z,9.13
2022-08-27T05:11:34.657Z,9.70
2022-08-27T05:14:08.336Z,8.25
2022-08-27T05:16:36.451Z,7.40
2022-08-27T05:19:11.189Z,7.63
2022-08-27T05:21:40.113Z,6.75
2022-08-27T05:24:08.320Z,7.47
2022-08-27T05:26:37.113Z,7.53
2022-08-27T05:29:06.306Z,5.38
2022-08-27T05:31:34.450Z,6.63
2022-08-27T05:34:02.892Z,6.22
2022-08-27T05:36:38.405Z,5.75
2022-08-27T05:39:15.225Z,4.95
2022-08-27T05:41:42.140Z,6.18
2022-08-27T05:44:37.289Z,5.65
2022-08-27T05:46:57.690Z,4.15
2022-08-27T05:49:24.551Z,6.25
2022-08-27T05:51:51.400Z,5.78
2022-08-27T05:54:21.025Z,6.40
2022-08-27T05:56:49.905Z,4.80
2022-08-27T05:59:36.560Z,5.60
2022-08-27T06:02:06.051Z,5.03
2022-08-27T06:04:33.336Z,5.78
2022-08-27T06:07:00.184Z,5.50
2022-08-27T06:09:29.545Z,5.55
2022-08-27T06:11:59.984Z,7.95
2022-08-27T06:14:28.020Z,4.30
2022-08-27T06:16:55.579Z,6.53
2022-08-27T06:19:23.562Z,5.85
2022-08-27T06:22:00.901Z,6.55
2022-08-27T06:24:40.508Z,6.10
2022-08-27T06:27:11.574Z,6.70
2022-08-27T06:29:39.531Z,7.15
2022-08-27T06:32:07.337Z,7.82
2022-08-27T06:34:34.645Z,6.68
2022-08-27T06:37:01.684Z,6.47
2022-08-27T06:39:29.035Z,9.15
2022-08-27T06:41:58.040Z,8.38
2022-08-27T06:44:25.166Z,6.18
2022-08-27T06:46:52.353Z,6.03
2022-08-27T06:49:19.196Z,6.15
2022-08-27T06:51:47.967Z,7.00
2022-08-27T06:54:16.802Z,6.35
2022-08-27T06:56:47.008Z,6.82
2022-08-27T06:59:17.789Z,6.43
2022-08-27T07:01:51.291Z,7.78
2022-08-27T07:04:32.140Z,5.53
2022-08-27T07:06:59.941Z,7.30
2022-08-27T07:09:27.074Z,6.00
2022-08-27T07:11:54.714Z,6.00
2022-08-27T07:14:21.897Z,6.32
2022-08-27T07:16:49.470Z,6.63
2022-08-27T07:19:18.537Z,7.85
2022-08-27T07:21:45.368Z,6.10
2022-08-27T07:24:12.498Z,6.85
2022-08-27T07:26:43.579Z,6.40
2022-08-27T07:29:15.109Z,7.28
2022-08-27T07:31:43.675Z,6.78
2022-08-27T07:34:10.852Z,7.03
2022-08-27T07:36:38.564Z,7.15
2022-08-27T07:39:07.243Z,5.20
2022-08-27T07:41:54.050Z,5.57
2022-08-27T07:44:31.008Z,4.47
2022-08-27T07:47:02.342Z,4.35
2022-08-27T07:49:30.119Z,4.68
2022-08-27T07:51:57.004Z,3.70
2022-08-27T07:54:23.994Z,3.78
2022-08-27T07:56:55.762Z,3.25
2022-08-27T07:59:25.062Z,2.58
2022-08-27T08:01:54.449Z,2.58
2022-08-27T08:04:22.731Z,2.85
2022-08-27T08:06:51.382Z,3.15
2022-08-27T08:09:20.127Z,2.78
2022-08-27T08:11:46.982Z,2.47
2022-08-27T08:14:14.190Z,2.47
2022-08-27T08:16:41.107Z,1.80
2022-08-27T08:19:09.146Z,2.35
2022-08-27T08:21:38.500Z,2.50
2022-08-27T08:24:06.156Z,2.90
2022-08-27T08:26:33.026Z,2.88
2022-08-27T08:29:00.765Z,2.13
2022-08-27T08:31:27.679Z,2.25
2022-08-27T08:33:54.985Z,1.70
2022-08-27T08:36:21.956Z,2.15
2022-08-27T08:38:49.455Z,2.25
2022-08-27T08:41:28.137Z,2.20
2022-08-27T08:44:05.634Z,1.73
2022-08-27T08:46:52.889Z,2.63
2022-08-27T08:49:51.585Z,2.25
2022-08-27T08:52:35.053Z,2.67
2022-08-27T08:55:23.026Z,2.17
2022-08-27T08:58:13.409Z,1.90
2022-08-27T09:00:43.862Z,2.10
2022-08-27T09:03:15.736Z,1.95
2022-08-27T09:05:59.417Z,1.80
2022-08-27T09:08:41.407Z,1.92
2022-08-27T09:11:23.306Z,2.25
2022-08-27T09:13:57.763Z,1.90
2022-08-27T09:16:24.754Z,2.65
2022-08-27T09:18:52.582Z,2.17
2022-08-27T09:21:45.792Z,2.00
2022-08-27T09:24:21.326Z,1.95
2022-08-27T09:26:48.403Z,2.58
2022-08-27T09:29:21.180Z,3.05
2022-08-27T09:31:58.847Z,2.20
2022-08-27T09:34:35.369Z,2.15
2022-08-27T09:37:10.123Z,2.78
2022-08-27T09:39:46.034Z,2.25
2022-08-27T09:42:35.587Z,2.78
2022-08-27T09:45:12.110Z,2.60
2022-08-27T09:48:05.197Z,2.72
2022-08-27T09:50:43.857Z,2.78
2022-08-27T09:53:53.141Z,3.45
2022-08-27T09:56:48.318Z,2.88
2022-08-27T09:59:34.486Z,2.50
2022-08-27T10:02:24.220Z,1.77
2022-08-27T10:04:56.250Z,2.92
2022-08-27T10:07:52.478Z,2.63
2022-08-27T10:10:55.992Z,2.25
2022-08-27T10:13:55.598Z,2.30
2022-08-27T10:16:52.752Z,2.85
2022-08-27T10:19:41.173Z,2.40
2022-08-27T10:22:35.380Z,3.50
2022-08-27T10:25:17.789Z,3.45
2022-08-27T10:28:24.584Z,3.30
2022-08-27T10:31:13.636Z,3.63
2022-08-27T10:34:21.082Z,3.63
2022-08-27T10:37:12.694Z,4.43
2022-08-27T10:40:07.325Z,4.05
2022-08-27T10:42:45.805Z,3.40
2022-08-27T10:45:47.554Z,4.35
2022-08-27T10:48:35.826Z,4.25
2022-08-27T10:51:17.554Z,4.38
2022-08-27T10:54:10.340Z,5.00
2022-08-27T10:57:14.531Z,4.93
2022-08-27T11:00:10.901Z,5.90
2022-08-27T11:03:13.706Z,4.10
2022-08-27T11:05:48.877Z,4.50
2022-08-27T11:08:27.749Z,4.13
2022-08-27T11:11:35.024Z,6.00
2022-08-27T11:13:58.920Z,5.13
2022-08-27T11:16:45.618Z,3.05
2022-08-27T11:19:27.738Z,4.28
2022-08-27T11:22:23.679Z,4.32
2022-08-27T11:25:05.499Z,4.40
2022-08-27T11:27:35.753Z,5.32
2022-08-27T11:30:11.412Z,5.72
2022-08-27T11:33:01.287Z,6.35
2022-08-27T11:35:56.891Z,5.82
2022-08-27T11:38:53.025Z,5.90
2022-08-27T11:41:44.662Z,5.15
2022-08-27T11:44:15.907Z,6.22
2022-08-27T11:47:24.970Z,5.80
2022-08-27T11:50:02.086Z,5.68
2022-08-27T11:52:42.331Z,7.32
2022-08-27T11:55:21.070Z,6.10
2022-08-27T11:58:04.449Z,5.65
2022-08-27T12:00:39.863Z,6.07
2022-08-27T12:03:31.153Z,7.13
2022-08-27T12:05:59.202Z,5.55
2022-08-27T12:08:34.026Z,5.63
2022-08-27T12:11:28.535Z,6.30
2022-08-27T12:14:14.329Z,4.60
2022-08-27T12:17:10.363Z,4.95
2022-08-27T12:20:10.628Z,7.22
2022-08-27T12:23:40.813Z,5.35
2022-08-27T12:26:27.427Z,6.88
2022-08-27T12:29:18.490Z,6.82
2022-08-27T12:31:51.337Z,7.22
2022-08-27T12:34:30.032Z,6.60
2022-08-27T12:36:56.926Z,4.85
2022-08-27T12:39:29.602Z,6.43
2022-08-27T12:41:56.605Z,7.72
2022-08-27T12:44:33.338Z,5.80
2022-08-27T12:47:11.926Z,4.93
2022-08-27T12:49:55.838Z,5.85
2022-08-27T12:52:50.391Z,4.47
2022-08-27T12:55:57.133Z,5.07
2022-08-27T12:58:59.182Z,6.22
2022-08-27T13:01:54.393Z,4.05
2022-08-27T13:04:27.244Z,7.75
2022-08-27T13:06:54.638Z,4.95
2022-08-27T13:09:38.754Z,3.78
2022-08-27T13:12:17.397Z,5.65
2022-08-27T13:14:44.555Z,5.15
2022-08-27T13:17:21.917Z,7.93
2022-08-27T13:20:23.755Z,6.35
2022-08-27T13:22:53.992Z,6.65
2022-08-27T13:25:33.191Z,5.63
2022-08-27T13:28:14.103Z,11.32
2022-08-27T13:30:46.323Z,4.40
2022-08-27T13:33:34.374Z,5.80
2022-08-27T13:36:03.763Z,5.75
2022-08-27T13:38:49.936Z,3.40
2022-08-27T13:41:31.658Z,6.15
2022-08-27T13:44:10.691Z,5.53
2022-08-27T13:46:51.947Z,5.40
2022-08-27T13:49:25.313Z,5.05
2022-08-27T13:52:09.127Z,4.47
2022-08-27T13:54:36.430Z,4.97
2022-08-27T13:57:09.946Z,5.22
2022-08-27T13:59:43.325Z,4.20
2022-08-27T14:02:10.437Z,3.50
2022-08-27T14:05:05.916Z,6.88
2022-08-27T14:07:37.995Z,5.32
2022-08-27T14:10:09.110Z,4.78
2022-08-27T14:12:41.049Z,4.05
2022-08-27T14:15:46.213Z,4.82
2022-08-27T14:18:57.303Z,6.10
2022-08-27T14:21:21.706Z,6.07
2022-08-27T14:23:49.105Z,5.70
2022-08-27T14:26:17.285Z,5.40
2022-08-27T14:28:45.514Z,2.90
2022-08-27T14:31:14.201Z,7.68
2022-08-27T14:33:41.348Z,3.88
2022-08-27T14:36:09.452Z,4.45
2022-08-27T14:38:41.870Z,5.90
2022-08-27T14:41:09.294Z,3.85
2022-08-27T14:43:38.069Z,7.63
2022-08-27T14:46:07.733Z,5.93
2022-08-27T14:48:36.846Z,5.57
2022-08-27T14:51:13.388Z,8.18
2022-08-27T14:53:40.475Z,4.82
2022-08-27T14:56:07.442Z,3.95
2022-08-27T14:58:34.438Z,6.38
2022-08-27T15:01:03.659Z,8.02
2022-08-27T15:03:31.730Z,6.72
2022-08-27T15:05:58.572Z,6.13
2022-08-27T15:08:29.175Z,7.68
2022-08-27T15:10:57.288Z,5.97
2022-08-27T15:13:24.497Z,8.73
2022-08-27T15:15:52.230Z,6.50
2022-08-27T15:18:19.938Z,5.15
2022-08-27T15:20:47.520Z,7.03
2022-08-27T15:23:15.956Z,7.00
2022-08-27T15:25:45.826Z,5.63
2022-08-27T15:28:12.844Z,5.57
2022-08-27T15:30:39.966Z,4.63
2022-08-27T15:33:07.388Z,6.13
2022-08-27T15:35:34.556Z,4.78
2022-08-27T15:38:01.976Z,4.80
2022-08-27T15:40:34.457Z,5.22
2022-08-27T15:43:06.158Z,5.45
2022-08-27T15:45:33.210Z,8.18
2022-08-27T15:48:00.874Z,6.22
2022-08-27T15:50:31.056Z,7.20
2022-08-27T15:53:04.256Z,6.28
2022-08-27T15:55:40.695Z,6.30
2022-08-27T15:58:08.803Z,9.38
2022-08-27T16:00:38.033Z,5.00
2022-08-27T16:03:11.258Z,5.97
2022-08-27T16:05:42.610Z,5.68
2022-08-27T16:08:11.166Z,7.00
2022-08-27T16:10:38.775Z,7.28
2022-08-27T16:13:05.640Z,6.75
2022-08-27T16:15:37.397Z,12.50
2022-08-27T16:18:04.484Z,7.28
2022-08-27T16:20:31.796Z,8.25
2022-08-27T16:22:58.761Z,6.45
2022-08-27T16:25:26.373Z,6.43
2022-08-27T16:27:53.685Z,7.18
2022-08-27T16:30:22.237Z,7.43
2022-08-27T16:32:52.795Z,8.15
2022-08-27T16:35:20.849Z,5.45
2022-08-27T16:37:48.050Z,5.28
2022-08-27T16:40:16.195Z,6.32
2022-08-27T16:42:48.315Z,6.57
2022-08-27T16:45:18.487Z,6.32
2022-08-27T16:48:20.503Z,4.57
2022-08-27T16:50:47.326Z,8.70
2022-08-27T16:53:18.546Z,8.10
2022-08-27T16:55:47.365Z,6.68
2022-08-27T16:58:21.923Z,8.10
2022-08-27T17:00:55.858Z,6.38
2022-08-27T17:03:24.977Z,7.72
2022-08-27T17:05:53.005Z,4.95
2022-08-27T17:08:26.729Z,5.82
2022-08-27T17:10:56.421Z,9.32
2022-08-27T17:13:28.964Z,4.68
2022-08-27T17:15:56.999Z,7.75
2022-08-27T17:18:27.160Z,7.13
2022-08-27T17:20:56.403Z,5.50
2022-08-27T17:23:33.645Z,5.88
2022-08-27T17:26:02.041Z,7.43
2022-08-27T17:28:29.059Z,5.43
2022-08-27T17:30:57.455Z,5.72
2022-08-27T17:33:37.819Z,5.15
2022-08-27T17:36:07.137Z,5.22
2022-08-27T17:38:34.470Z,6.22
2022-08-27T17:41:10.581Z,6.20
2022-08-27T17:43:37.516Z,6.07
2022-08-27T17:46:04.486Z,5.68
2022-08-27T17:48:31.606Z,3.05
2022-08-27T17:50:59.049Z,3.88
2022-08-27T17:53:26.446Z,6.00
2022-08-27T17:55:53.433Z,5.93
2022-08-27T17:58:20.778Z,6.18
2022-08-27T18:00:47.818Z,3.53
2022-08-27T18:03:19.349Z,6.90
2022-08-27T18:05:49.603Z,6.80
2022-08-27T18:08:16.926Z,6.15
2022-08-27T18:10:47.539Z,5.65
2022-08-27T18:13:14.868Z,6.85
2022-08-27T18:15:43.092Z,5.85
2022-08-27T18:18:11.843Z,6.63
2022-08-27T18:20:42.532Z,4.80
2022-08-27T18:23:10.215Z,3.70
2022-08-27T18:25:39.059Z,5.13
2022-08-27T18:28:09.457Z,5.07
2022-08-27T18:30:39.566Z,5.05
2022-08-27T18:33:06.523Z,5.53
2022-08-27T18:35:35.606Z,5.70
2022-08-27T18:38:02.638Z,3.88
2022-08-27T18:40:36.651Z,4.20
2022-08-27T18:43:05.024Z,4.32
2022-08-27T18:45:33.222Z,5.38
2022-08-27T18:48:02.259Z,4.13
2022-08-27T18:50:29.268Z,4.85
2022-08-27T18:52:57.845Z,3.95
2022-08-27T18:55:28.091Z,5.75
2022-08-27T18:57:55.049Z,6.05
2022-08-27T19:00:22.495Z,6.25
2022-08-27T19:02:52.570Z,4.75
2022-08-27T19:05:26.686Z,5.35
2022-08-27T19:07:54.362Z,5.05
2022-08-27T19:10:21.928Z,4.93
2022-08-27T19:12:49.034Z,4.15
2022-08-27T19:15:16.452Z,4.55
2022-08-27T19:17:50.697Z,5.80
2022-08-27T19:20:18.647Z,5.10
2022-08-27T19:22:47.209Z,3.40
2022-08-27T19:25:15.381Z,5.30
2022-08-27T19:27:44.793Z,5.45
2022-08-27T19:30:14.781Z,6.30
2022-08-27T19:32:42.266Z,5.47
2022-08-27T19:35:09.828Z,4.15
2022-08-27T19:37:44.003Z,3.78
2022-08-27T19:40:14.484Z,5.13
2022-08-27T19:42:41.962Z,5.13
2022-08-27T19:45:10.211Z,4.75
2022-08-27T19:47:37.678Z,4.70
2022-08-27T19:50:05.590Z,4.95
2022-08-27T19:52:32.467Z,3.65
2022-08-27T19:55:14.962Z,5.30
2022-08-27T19:57:44.163Z,3.35
2022-08-27T20:00:15.837Z,5.18
2022-08-27T20:02:42.762Z,9.02
2022-08-27T20:05:18.656Z,4.05
2022-08-27T20:07:49.366Z,4.22
2022-08-27T20:10:18.726Z,4.03
2022-08-27T20:12:45.723Z,6.97
2022-08-27T20:15:12.700Z,5.13
2022-08-27T20:17:40.168Z,5.57
2022-08-27T20:20:08.930Z,3.20
2022-08-27T20:22:36.336Z,6.00
2022-08-27T20:25:03.673Z,5.85
2022-08-27T20:27:30.486Z,4.68
2022-08-27T20:29:57.443Z,4.22
2022-08-27T20:32:29.696Z,5.30
2022-08-27T20:34:58.059Z,4.78
2022-08-27T20:37:25.022Z,6.22
2022-08-27T20:39:52.426Z,4.97
2022-08-27T20:42:20.483Z,5.70
2022-08-27T20:44:48.402Z,4.93
2022-08-27T20:47:17.345Z,4.82
2022-08-27T20:49:44.661Z,6.10
2022-08-27T20:52:13.116Z,5.50
2022-08-27T20:54:40.556Z,5.32
2022-08-27T20:57:08.703Z,6.20
2022-08-27T21:00:14.335Z,6.57
2022-08-27T21:02:41.635Z,8.18
2022-08-27T21:05:15.230Z,7.63
2022-08-27T21:07:42.502Z,5.95
2022-08-27T21:10:09.662Z,7.15
2022-08-27T21:12:36.755Z,5.45
2022-08-27T21:15:07.652Z,5.47
2022-08-27T21:17:35.240Z,4.97
2022-08-27T21:20:03.389Z,6.03
2022-08-27T21:22:30.365Z,6.85
2022-08-27T21:24:57.190Z,7.50
2022-08-27T21:27:24.512Z,7.28
2022-08-27T21:29:51.727Z,4.68
2022-08-27T21:32:19.045Z,4.60
2022-08-27T21:34:46.101Z,4.00
2022-08-27T21:37:14.774Z,6.10
2022-08-27T21:39:43.536Z,5.82
2022-08-27T21:42:13.037Z,5.50
2022-08-27T21:44:40.142Z,8.38
2022-08-27T21:47:07.362Z,7.38
2022-08-27T21:49:34.630Z,5.25
2022-08-27T21:52:07.025Z,4.47
2022-08-27T21:54:39.696Z,6.80
2022-08-27T21:57:08.689Z,6.18
2022-08-27T21:59:44.712Z,6.65
2022-08-27T22:02:38.148Z,5.38
2022-08-27T22:05:01.028Z,6.07
2022-08-27T22:07:28.099Z,10.27
2022-08-27T22:09:54.929Z,6.35
2022-08-27T22:12:21.773Z,7.53
2022-08-27T22:14:48.638Z,8.43
2022-08-27T22:17:15.909Z,5.70
2022-08-27T22:19:43.061Z,6.45
2022-08-27T22:22:10.200Z,5.03
2022-08-27T22:24:37.351Z,7.07
2022-08-27T22:27:04.533Z,3.28
2022-08-27T22:29:31.597Z,8.00
2022-08-27T22:31:58.680Z,7.88
2022-08-27T22:34:25.827Z,5.22
2022-08-27T22:36:52.995Z,5.47
2022-08-27T22:39:19.819Z,5.43
2022-08-27T22:41:49.196Z,7.28
2022-08-27T22:44:16.496Z,5.70
2022-08-27T22:46:43.486Z,4.03
2022-08-27T22:49:10.432Z,4.53
2022-08-27T22:51:37.230Z,4.40
2022-08-27T22:54:04.984Z,5.47
2022-08-27T22:56:31.851Z,5.90
2022-08-27T22:58:58.930Z,5.10
2022-08-27T23:01:26.615Z,7.15
2022-08-27T23:03:54.599Z,5.85
2022-08-27T23:06:21.694Z,5.22
2022-08-27T23:08:48.590Z,3.95
2022-08-27T23:11:16.031Z,6.95
2022-08-27T23:13:42.813Z,5.22
2022-08-27T23:16:09.848Z,5.10
2022-08-27T23:18:40.574Z,4.40
2022-08-27T23:21:09.579Z,4.30
2022-08-27T23:23:37.913Z,7.80
2022-08-27T23:26:23.743Z,4.43
2022-08-27T23:28:50.630Z,5.82
2022-08-27T23:31:18.894Z,5.68
2022-08-27T23:33:52.150Z,3.30
2022-08-27T23:36:19.727Z,9.00
2022-08-27T23:38:46.990Z,3.97
2022-08-27T23:41:16.315Z,3.58
2022-08-27T23:43:44.188Z,5.18
2022-08-27T23:46:12.000Z,6.63
2022-08-27T23:48:39.394Z,6.32
2022-08-27T23:51:08.638Z,3.50
2022-08-27T23:53:37.965Z,5.78
2022-08-27T23:56:05.923Z,5.55
2022-08-27T23:58:37.654Z,6.05
